Time;durP1;ratioP1;P1;durP2;ratioP2;P2;SDS_P1;SDS_P2;PMS_P1;PMS_P2;Temp;Humidity;BMP_temperature;BMP_pressure;BME280_temperature;BME280_humidity;BME280_pressure;Samples;Min_cycle;Max_cycle;Signal;HPM_P1;HPM_P2
2021/11/18 00:00:45;;;;;;;11.57;7.88;;;;;;;;;;4949533;29;20381;-67
2021/11/18 00:03:13;;;;;;;13.07;8.70;;;;;;;;;;4937005;29;20052;-67
2021/11/18 00:05:40;;;;;;;10.98;7.55;;;;;;;;;;4937341;29;20051;-67
2021/11/18 00:08:07;;;;;;;11.30;7.13;;;;;;;;;;4936873;29;20060;-67
2021/11/18 00:10:40;;;;;;;12.20;8.55;;;;;;;;;;4952634;29;20043;-67
2021/11/18 00:13:09;;;;;;;12.55;8.88;;;;;;;;;;4937268;29;20099;-68
2021/11/18 00:15:36;;;;;;;12.10;7.68;;;;;;;;;;4955880;29;20578;-66
2021/11/18 00:18:07;;;;;;;12.13;8.65;;;;;;;;;;4947086;29;20091;-67
2021/11/18 00:20:48;;;;;;;11.80;8.65;;;;;;;;;;4936875;29;20102;-67
2021/11/18 00:23:15;;;;;;;12.45;8.02;;;;;;;;;;4936503;29;20056;-67
2021/11/18 00:25:42;;;;;;;11.63;8.05;;;;;;;;;;4936728;29;20051;-66
2021/11/18 00:28:08;;;;;;;11.98;8.88;;;;;;;;;;4936756;29;20099;-68
2021/11/18 00:30:36;;;;;;;10.73;8.48;;;;;;;;;;4942538;29;20043;-67
2021/11/18 00:33:03;;;;;;;14.05;9.43;;;;;;;;;;4954931;29;20511;-66
2021/11/18 00:35:31;;;;;;;11.68;9.13;;;;;;;;;;4955580;29;20047;-67
2021/11/18 00:37:58;;;;;;;13.20;8.98;;;;;;;;;;4955297;29;20051;-67
2021/11/18 00:40:27;;;;;;;13.13;10.32;;;;;;;;;;4949543;29;20051;-66
2021/11/18 00:42:54;;;;;;;14.15;10.10;;;;;;;;;;4940992;28;20359;-67
2021/11/18 00:45:23;;;;;;;13.90;10.63;;;;;;;;;;4954839;29;20110;-66
2021/11/18 00:47:51;;;;;;;15.10;11.05;;;;;;;;;;4955329;29;20059;-66
2021/11/18 00:50:20;;;;;;;15.40;11.73;;;;;;;;;;4921038;29;20083;-66
2021/11/18 00:52:47;;;;;;;16.52;12.80;;;;;;;;;;4936139;29;20099;-67
2021/11/18 00:55:14;;;;;;;18.83;12.05;;;;;;;;;;4936106;29;20111;-67
2021/11/18 00:57:41;;;;;;;14.82;12.23;;;;;;;;;;4944082;29;20102;-67
2021/11/18 01:00:12;;;;;;;17.15;12.13;;;;;;;;;;4953456;29;20079;-67
2021/11/18 01:02:39;;;;;;;15.80;12.52;;;;;;;;;;4936276;29;20463;-67
2021/11/18 01:05:06;;;;;;;18.50;12.00;;;;;;;;;;4935826;29;20090;-67
2021/11/18 01:07:33;;;;;;;16.73;12.25;;;;;;;;;;4919306;29;20491;-68
2021/11/18 01:09:59;;;;;;;14.40;12.15;;;;;;;;;;4939301;29;20043;-67
2021/11/18 01:12:26;;;;;;;16.98;12.55;;;;;;;;;;4943878;29;20056;-67
2021/11/18 01:14:53;;;;;;;16.25;12.40;;;;;;;;;;4935660;29;20115;-67
2021/11/18 01:17:19;;;;;;;14.98;12.20;;;;;;;;;;4935693;29;20056;-66
2021/11/18 01:19:46;;;;;;;15.50;12.23;;;;;;;;;;4935610;29;20570;-67
2021/11/18 01:22:13;;;;;;;15.75;12.23;;;;;;;;;;4935262;29;20145;-67
2021/11/18 01:24:41;;;;;;;17.35;12.48;;;;;;;;;;4935540;29;20055;-66
2021/11/18 01:27:08;;;;;;;16.48;12.20;;;;;;;;;;4935767;29;20059;-67
2021/11/18 01:29:34;;;;;;;15.98;12.70;;;;;;;;;;4935319;29;20047;-67
2021/11/18 01:32:01;;;;;;;18.92;13.02;;;;;;;;;;4937560;29;20107;-67
2021/11/18 01:34:28;;;;;;;18.30;13.25;;;;;;;;;;4954518;29;20095;-68
2021/11/18 01:36:54;;;;;;;15.43;12.52;;;;;;;;;;4948049;29;20051;-67
2021/11/18 01:39:21;;;;;;;18.05;13.05;;;;;;;;;;4935244;29;20519;-66
2021/11/18 01:41:48;;;;;;;16.83;13.45;;;;;;;;;;4954193;29;20051;-68
2021/11/18 01:44:26;;;;;;;18.65;13.00;;;;;;;;;;4940799;29;20404;-67
2021/11/18 01:46:52;;;;;;;18.05;13.35;;;;;;;;;;4935814;29;20126;-66
2021/11/18 01:49:19;;;;;;;16.63;12.45;;;;;;;;;;4948473;29;20099;-66
2021/11/18 01:51:49;;;;;;;17.42;12.18;;;;;;;;;;4936056;29;20110;-68
2021/11/18 01:54:21;;;;;;;16.52;12.07;;;;;;;;;;4921877;29;20053;-67
2021/11/18 01:56:48;;;;;;;17.38;12.27;;;;;;;;;;4952852;28;20122;-67
2021/11/18 01:59:26;;;;;;;19.05;12.90;;;;;;;;;;4934868;29;20056;-68
2021/11/18 02:01:55;;;;;;;17.90;13.05;;;;;;;;;;4947831;29;20086;-67
2021/11/18 02:04:28;;;;;;;20.10;13.27;;;;;;;;;;4953953;29;20057;-66
2021/11/18 02:07:07;;;;;;;16.73;11.60;;;;;;;;;;4951988;29;20055;-68
2021/11/18 02:35:57;;;;;;;15.23;11.93;;;;;;;;;;4944929;29;20406;-66
2021/11/18 02:38:24;;;;;;;20.33;13.57;;;;;;;;;;4916029;29;20495;-66
2021/11/18 02:40:50;;;;;;;16.55;12.10;;;;;;;;;;4934375;29;20048;-66
2021/11/18 02:43:17;;;;;;;16.08;11.50;;;;;;;;;;4934228;29;20099;-66
2021/11/18 02:45:47;;;;;;;15.80;11.52;;;;;;;;;;4941573;29;20134;-67
2021/11/18 02:48:14;;;;;;;13.70;11.02;;;;;;;;;;4952258;29;20125;-67
2021/11/18 02:50:43;;;;;;;18.15;10.48;;;;;;;;;;4953389;29;20043;-66
2021/11/18 02:53:09;;;;;;;13.20;10.20;;;;;;;;;;4953225;29;20458;-67
2021/11/18 02:55:39;;;;;;;14.35;10.38;;;;;;;;;;4952874;29;20106;-66
2021/11/18 02:58:06;;;;;;;14.77;10.27;;;;;;;;;;4953252;29;20545;-66
2021/11/18 03:00:37;;;;;;;19.85;10.45;;;;;;;;;;4953307;29;20495;-67
2021/11/18 03:03:04;;;;;;;14.57;9.90;;;;;;;;;;4952429;29;20149;-68
2021/11/18 03:05:31;;;;;;;15.07;10.40;;;;;;;;;;4953463;29;20492;-67
2021/11/18 03:07:58;;;;;;;12.40;10.50;;;;;;;;;;4937972;29;20107;-66
2021/11/18 03:10:26;;;;;;;23.05;12.63;;;;;;;;;;4969652;23;20039;-65
2021/11/18 03:12:52;;;;;;;16.02;12.70;;;;;;;;;;4962584;28;20054;-66
2021/11/18 03:15:20;;;;;;;22.40;13.07;;;;;;;;;;4995833;28;20062;-65
2021/11/18 03:17:47;;;;;;;19.10;12.35;;;;;;;;;;4978907;28;20054;-65
2021/11/18 03:20:16;;;;;;;16.23;11.85;;;;;;;;;;4995523;28;20050;-65
2021/11/18 03:22:43;;;;;;;20.02;11.77;;;;;;;;;;4995294;28;20555;-66
2021/11/18 03:25:10;;;;;;;17.13;11.95;;;;;;;;;;4978344;28;20050;-66
2021/11/18 03:27:38;;;;;;;16.00;12.55;;;;;;;;;;4978310;28;20054;-65
2021/11/18 03:30:06;;;;;;;21.70;13.07;;;;;;;;;;4962124;28;20493;-65
2021/11/18 03:32:37;;;;;;;18.10;12.60;;;;;;;;;;4978744;28;20050;-65
2021/11/18 03:35:05;;;;;;;18.52;13.40;;;;;;;;;;4978443;28;20464;-66
2021/11/18 03:37:31;;;;;;;20.05;13.15;;;;;;;;;;4962294;28;20054;-66
2021/11/18 03:39:58;;;;;;;18.55;13.45;;;;;;;;;;4995414;28;20132;-66
2021/11/18 03:42:25;;;;;;;16.80;12.80;;;;;;;;;;4995045;28;20050;-66
2021/11/18 03:44:51;;;;;;;18.52;13.00;;;;;;;;;;4962296;28;20054;-66
2021/11/18 03:47:18;;;;;;;18.33;13.30;;;;;;;;;;4995268;28;20076;-66
2021/11/18 03:49:45;;;;;;;20.55;13.13;;;;;;;;;;4995151;28;20105;-66
2021/11/18 03:52:13;;;;;;;19.55;13.60;;;;;;;;;;4994888;28;20105;-65
2021/11/18 03:54:41;;;;;;;19.65;13.57;;;;;;;;;;4977989;28;20559;-66
2021/11/18 03:57:08;;;;;;;16.42;13.10;;;;;;;;;;4977927;28;20118;-66
2021/11/18 03:59:38;;;;;;;20.70;13.82;;;;;;;;;;4977876;28;20394;-66
2021/11/18 04:02:05;;;;;;;22.35;14.52;;;;;;;;;;4961661;28;20042;-66
2021/11/18 04:04:35;;;;;;;16.55;12.25;;;;;;;;;;4961832;28;20058;-66
2021/11/18 04:07:02;;;;;;;17.15;12.93;;;;;;;;;;4961616;28;20559;-66
2021/11/18 04:09:28;;;;;;;20.27;13.50;;;;;;;;;;4977764;28;20050;-66
2021/11/18 04:11:59;;;;;;;19.00;13.50;;;;;;;;;;4994733;28;20046;-65
2021/11/18 04:14:28;;;;;;;17.45;13.73;;;;;;;;;;4978017;28;20062;-65
2021/11/18 04:16:55;;;;;;;20.35;13.85;;;;;;;;;;4961606;28;20505;-65
2021/11/18 04:19:22;;;;;;;22.05;13.55;;;;;;;;;;4976106;28;20058;-65
2021/11/18 04:21:49;;;;;;;19.48;13.43;;;;;;;;;;4961211;28;20081;-65
2021/11/18 04:24:19;;;;;;;23.88;13.45;;;;;;;;;;4958019;28;20047;-65
2021/11/18 04:26:47;;;;;;;18.60;12.35;;;;;;;;;;4958163;28;20051;-65
2021/11/18 04:29:16;;;;;;;19.00;13.45;;;;;;;;;;4958161;28;20054;-65
2021/11/18 04:31:43;;;;;;;19.52;13.73;;;;;;;;;;4957741;28;20089;-66
2021/11/18 04:34:09;;;;;;;21.33;13.68;;;;;;;;;;4986181;28;20054;-65
2021/11/18 04:36:39;;;;;;;20.50;13.77;;;;;;;;;;4977411;28;20054;-65
2021/11/18 04:39:07;;;;;;;18.42;12.88;;;;;;;;;;4977463;28;20469;-66
2021/11/18 04:41:34;;;;;;;21.02;13.55;;;;;;;;;;4976826;28;20050;-65
2021/11/18 04:44:01;;;;;;;17.85;12.25;;;;;;;;;;4996560;28;20050;-66
2021/11/18 04:46:28;;;;;;;20.65;13.60;;;;;;;;;;4990219;28;20124;-65
2021/11/18 04:48:57;;;;;;;18.90;13.40;;;;;;;;;;4976981;28;20061;-65
2021/11/18 04:51:25;;;;;;;18.65;12.38;;;;;;;;;;5007163;28;20050;-65
2021/11/18 04:53:52;;;;;;;18.52;13.07;;;;;;;;;;4980436;28;20054;-65
2021/11/18 04:56:18;;;;;;;19.70;12.07;;;;;;;;;;5013856;28;20069;-66
2021/11/18 04:58:45;;;;;;;25.30;13.60;;;;;;;;;;5013929;28;20104;-65
2021/11/18 05:01:13;;;;;;;21.33;13.13;;;;;;;;;;4995838;28;20053;-65
2021/11/18 05:03:41;;;;;;;19.05;13.10;;;;;;;;;;4996336;28;20061;-66
2021/11/18 05:06:08;;;;;;;16.77;12.57;;;;;;;;;;4995563;28;20174;-66
2021/11/18 05:08:35;;;;;;;19.58;13.23;;;;;;;;;;4976827;28;20057;-66
2021/11/18 05:11:02;;;;;;;18.15;12.77;;;;;;;;;;4976226;28;20043;-65
2021/11/18 05:13:31;;;;;;;18.55;12.10;;;;;;;;;;4976736;28;20393;-66
2021/11/18 05:16:00;;;;;;;19.85;13.75;;;;;;;;;;4976897;28;20568;-66
2021/11/18 05:18:27;;;;;;;16.65;12.45;;;;;;;;;;4994046;28;20054;-66
2021/11/18 05:20:55;;;;;;;20.25;13.25;;;;;;;;;;4993457;28;20050;-66
2021/11/18 05:23:22;;;;;;;18.27;12.50;;;;;;;;;;4993632;28;20061;-66
2021/11/18 05:25:49;;;;;;;20.40;13.13;;;;;;;;;;4976541;28;20058;-66
2021/11/18 05:28:15;;;;;;;19.73;13.05;;;;;;;;;;4993771;28;20444;-66
2021/11/18 05:30:42;;;;;;;18.73;12.45;;;;;;;;;;4993071;28;20177;-66
2021/11/18 05:33:11;;;;;;;19.50;13.00;;;;;;;;;;4976267;28;20050;-67
2021/11/18 05:35:39;;;;;;;19.80;13.10;;;;;;;;;;4960518;28;20054;-67
2021/11/18 05:38:06;;;;;;;19.75;12.50;;;;;;;;;;4979878;28;20049;-66
2021/11/18 05:40:34;;;;;;;18.08;13.20;;;;;;;;;;4978958;28;20394;-67
2021/11/18 05:43:01;;;;;;;17.95;12.25;;;;;;;;;;4979411;28;20049;-67
2021/11/18 05:45:29;;;;;;;20.17;13.02;;;;;;;;;;4995372;28;20417;-65
2021/11/18 05:47:56;;;;;;;19.67;12.98;;;;;;;;;;5012814;28;20136;-66
2021/11/18 05:50:23;;;;;;;19.40;13.57;;;;;;;;;;4995043;28;20127;-66
2021/11/18 05:52:49;;;;;;;19.10;12.98;;;;;;;;;;5012530;28;20053;-67
2021/11/18 05:55:18;;;;;;;20.45;12.55;;;;;;;;;;4995235;28;20109;-66
2021/11/18 05:57:46;;;;;;;17.20;11.85;;;;;;;;;;4974274;28;20045;-66
2021/11/18 06:00:21;;;;;;;16.00;12.30;;;;;;;;;;4975022;28;20058;-66
2021/11/18 06:02:48;;;;;;;17.73;12.50;;;;;;;;;;4960092;28;20081;-67
2021/11/18 06:05:15;;;;;;;17.10;12.57;;;;;;;;;;4992951;28;20421;-67
2021/11/18 06:07:42;;;;;;;24.77;12.80;;;;;;;;;;4992429;28;20051;-68
2021/11/18 06:10:11;;;;;;;16.73;12.00;;;;;;;;;;4950580;28;20058;-66
2021/11/18 06:12:39;;;;;;;22.15;14.55;;;;;;;;;;4955987;28;20501;-67
2021/11/18 06:15:06;;;;;;;27.23;15.77;;;;;;;;;;4940514;28;20054;-67
2021/11/18 06:17:34;;;;;;;25.25;15.88;;;;;;;;;;4956427;28;20055;-67
2021/11/18 06:20:00;;;;;;;24.02;16.13;;;;;;;;;;4973831;28;20054;-66
2021/11/18 06:22:27;;;;;;;25.67;15.38;;;;;;;;;;4973103;28;20490;-67
2021/11/18 06:24:54;;;;;;;21.55;14.80;;;;;;;;;;4973203;28;20047;-67
2021/11/18 06:27:22;;;;;;;21.60;15.18;;;;;;;;;;4955884;28;20114;-67
2021/11/18 06:29:49;;;;;;;21.50;14.23;;;;;;;;;;4973500;28;20109;-67
2021/11/18 06:32:16;;;;;;;20.73;13.27;;;;;;;;;;4959094;28;20092;-67
2021/11/18 06:34:43;;;;;;;18.83;12.95;;;;;;;;;;4975484;28;20082;-66
2021/11/18 06:37:11;;;;;;;21.27;13.45;;;;;;;;;;4975218;28;20142;-67
2021/11/18 06:39:38;;;;;;;21.73;13.82;;;;;;;;;;4975250;28;20470;-67
2021/11/18 06:42:06;;;;;;;20.23;13.95;;;;;;;;;;4974297;28;20073;-67
2021/11/18 06:44:33;;;;;;;21.67;13.75;;;;;;;;;;4959225;28;20418;-67
2021/11/18 06:47:00;;;;;;;23.55;14.73;;;;;;;;;;4959273;28;20521;-68
2021/11/18 06:49:27;;;;;;;18.95;13.88;;;;;;;;;;4959164;28;20054;-67
2021/11/18 06:51:54;;;;;;;21.55;14.30;;;;;;;;;;4958877;28;20051;-67
2021/11/18 06:54:21;;;;;;;25.40;14.25;;;;;;;;;;4992158;28;20054;-67
2021/11/18 06:56:49;;;;;;;19.55;13.57;;;;;;;;;;4954065;28;20055;-66
2021/11/18 06:59:15;;;;;;;20.80;13.70;;;;;;;;;;4972691;28;20050;-66
2021/11/18 07:01:42;;;;;;;24.17;14.05;;;;;;;;;;4972571;28;20051;-67
2021/11/18 07:04:10;;;;;;;21.85;14.63;;;;;;;;;;4955725;28;20473;-67
2021/11/18 07:06:37;;;;;;;21.55;13.90;;;;;;;;;;4955551;28;20050;-67
2021/11/18 07:09:09;;;;;;;23.73;14.18;;;;;;;;;;4947000;28;20050;-67
2021/11/18 07:11:36;;;;;;;28.10;15.00;;;;;;;;;;4959147;28;20046;-66
2021/11/18 07:14:03;;;;;;;20.90;13.75;;;;;;;;;;4974818;28;20493;-67
2021/11/18 07:16:30;;;;;;;25.92;15.57;;;;;;;;;;4959004;28;20077;-66
2021/11/18 07:18:57;;;;;;;21.92;14.20;;;;;;;;;;4974956;28;20050;-66
2021/11/18 07:21:24;;;;;;;24.17;13.90;;;;;;;;;;4974480;28;20043;-67
2021/11/18 07:23:56;;;;;;;25.63;14.20;;;;;;;;;;4974752;28;20409;-66
2021/11/18 07:26:22;;;;;;;24.25;14.70;;;;;;;;;;4974615;28;20104;-66
2021/11/18 07:28:49;;;;;;;20.67;13.80;;;;;;;;;;4974823;28;20058;-67
2021/11/18 07:31:16;;;;;;;23.33;14.52;;;;;;;;;;4974566;28;20096;-67
2021/11/18 07:33:43;;;;;;;22.00;14.02;;;;;;;;;;4974841;28;20050;-66
2021/11/18 07:36:09;;;;;;;23.40;14.75;;;;;;;;;;4991860;28;20476;-67
2021/11/18 07:38:36;;;;;;;23.52;15.27;;;;;;;;;;4992217;28;20706;-66
2021/11/18 07:41:04;;;;;;;21.77;14.77;;;;;;;;;;4974270;28;20097;-67
2021/11/18 07:43:34;;;;;;;23.10;15.15;;;;;;;;;;4974782;28;20120;-66
2021/11/18 07:46:20;;;;;;;23.83;16.17;;;;;;;;;;4945327;28;20142;-67
2021/11/18 07:48:48;;;;;;;23.77;15.25;;;;;;;;;;4972696;28;20125;-66
2021/11/18 07:51:17;;;;;;;25.88;15.27;;;;;;;;;;4954821;28;20050;-66
2021/11/18 07:53:45;;;;;;;22.80;15.00;;;;;;;;;;4957162;28;20097;-66
2021/11/18 07:56:13;;;;;;;24.42;15.35;;;;;;;;;;4946195;28;20050;-66
2021/11/18 07:58:40;;;;;;;21.83;14.25;;;;;;;;;;4995010;28;20050;-66
2021/11/18 08:01:07;;;;;;;26.38;15.07;;;;;;;;;;4975112;28;20117;-66
2021/11/18 08:03:34;;;;;;;23.63;15.40;;;;;;;;;;4993305;28;20473;-66
2021/11/18 08:06:02;;;;;;;26.70;16.27;;;;;;;;;;4975590;28;20591;-66
2021/11/18 08:08:29;;;;;;;25.15;15.82;;;;;;;;;;4992743;28;20528;-66
2021/11/18 08:10:55;;;;;;;20.95;14.57;;;;;;;;;;4975088;28;20054;-66
2021/11/18 08:13:22;;;;;;;22.50;15.45;;;;;;;;;;4992242;28;20074;-66
2021/11/18 08:15:48;;;;;;;24.65;14.30;;;;;;;;;;4975424;28;20061;-66
2021/11/18 08:18:15;;;;;;;29.48;14.73;;;;;;;;;;4992817;28;20050;-66
2021/11/18 08:20:42;;;;;;;23.08;14.93;;;;;;;;;;4992514;28;20105;-66
2021/11/18 08:23:09;;;;;;;24.80;15.15;;;;;;;;;;4992660;28;20073;-66
2021/11/18 08:25:36;;;;;;;26.70;15.32;;;;;;;;;;4992428;28;20124;-66
2021/11/18 08:28:03;;;;;;;26.67;15.32;;;;;;;;;;4975439;28;20564;-66
2021/11/18 08:30:32;;;;;;;23.35;14.77;;;;;;;;;;4974996;28;20132;-66
2021/11/18 08:33:00;;;;;;;27.38;15.25;;;;;;;;;;4992309;28;20097;-67
2021/11/18 08:35:33;;;;;;;24.83;15.05;;;;;;;;;;4992394;28;20058;-67
2021/11/18 08:38:02;;;;;;;25.80;15.50;;;;;;;;;;4975772;28;20097;-66
2021/11/18 08:40:29;;;;;;;25.73;14.85;;;;;;;;;;4974873;28;20484;-67
2021/11/18 08:42:56;;;;;;;25.17;14.85;;;;;;;;;;4992579;28;20050;-66
2021/11/18 08:45:23;;;;;;;26.02;15.02;;;;;;;;;;4992524;28;20053;-66
2021/11/18 08:47:50;;;;;;;26.50;14.98;;;;;;;;;;4992436;28;20090;-66
2021/11/18 08:50:21;;;;;;;26.48;15.35;;;;;;;;;;4965518;28;20054;-68
2021/11/18 08:52:47;;;;;;;26.52;14.35;;;;;;;;;;4980374;28;20078;-66
2021/11/18 08:55:18;;;;;;;24.05;15.30;;;;;;;;;;4962532;28;20063;-66
2021/11/18 08:57:46;;;;;;;28.83;14.32;;;;;;;;;;4978899;28;20058;-66
2021/11/18 09:00:22;;;;;;;21.67;12.77;;;;;;;;;;4977667;28;20457;-66
2021/11/18 09:02:49;;;;;;;24.02;14.05;;;;;;;;;;4981028;28;20101;-66
2021/11/18 09:05:17;;;;;;;26.65;14.45;;;;;;;;;;4978541;28;20529;-66
2021/11/18 09:07:44;;;;;;;25.15;13.77;;;;;;;;;;4977619;28;20188;-67
2021/11/18 09:10:12;;;;;;;20.88;14.40;;;;;;;;;;4983546;28;20059;-68
2021/11/18 09:12:41;;;;;;;24.95;14.93;;;;;;;;;;4976467;28;20090;-66
2021/11/18 09:15:11;;;;;;;24.83;13.82;;;;;;;;;;4979432;28;20117;-66
2021/11/18 09:17:38;;;;;;;20.80;13.38;;;;;;;;;;4978700;28;20046;-66
2021/11/18 09:20:06;;;;;;;21.38;14.88;;;;;;;;;;4961197;28;20094;-70
2021/11/18 09:22:33;;;;;;;28.27;14.35;;;;;;;;;;4968483;28;20117;-69
2021/11/18 09:25:01;;;;;;;23.30;13.85;;;;;;;;;;4976307;28;20062;-70
2021/11/18 09:27:33;;;;;;;24.85;14.18;;;;;;;;;;4962796;28;20055;-68
2021/11/18 09:30:02;;;;;;;24.10;14.95;;;;;;;;;;4963157;28;20190;-65
2021/11/18 09:32:30;;;;;;;32.22;15.30;;;;;;;;;;4977577;28;20047;-66
2021/11/18 09:34:59;;;;;;;28.73;14.23;;;;;;;;;;4978034;28;20059;-67
2021/11/18 09:37:26;;;;;;;29.23;15.00;;;;;;;;;;4980190;28;20566;-65
2021/11/18 09:39:52;;;;;;;24.00;14.20;;;;;;;;;;4961234;28;20792;-65
2021/11/18 09:42:22;;;;;;;27.35;15.45;;;;;;;;;;4976519;28;20457;-65
2021/11/18 09:44:52;;;;;;;25.15;15.13;;;;;;;;;;4980361;28;20273;-65
2021/11/18 09:47:47;;;;;;;24.33;15.43;;;;;;;;;;4981607;28;20055;-65
2021/11/18 09:50:44;;;;;;;29.00;14.45;;;;;;;;;;4976822;28;20046;-65
2021/11/18 09:53:35;;;;;;;25.20;13.88;;;;;;;;;;4976468;28;20087;-65
2021/11/18 09:56:47;;;;;;;27.27;14.10;;;;;;;;;;4976647;28;20059;-65
2021/11/18 09:59:35;;;;;;;28.33;14.18;;;;;;;;;;4969393;28;20054;-65
2021/11/18 10:02:18;;;;;;;24.88;14.77;;;;;;;;;;4979331;28;20568;-65
2021/11/18 10:04:59;;;;;;;29.42;14.80;;;;;;;;;;4959875;28;20125;-65
2021/11/18 10:07:54;;;;;;;34.17;15.90;;;;;;;;;;4949325;28;20054;-65
2021/11/18 10:10:43;;;;;;;20.98;13.25;;;;;;;;;;4947089;28;20058;-65
2021/11/18 10:13:16;;;;;;;29.77;13.60;;;;;;;;;;4964432;28;20054;-65
2021/11/18 10:15:46;;;;;;;27.38;14.55;;;;;;;;;;4961413;28;20051;-65
2021/11/18 10:18:23;;;;;;;32.08;14.73;;;;;;;;;;4958815;28;20110;-65
2021/11/18 10:21:16;;;;;;;27.58;13.57;;;;;;;;;;4945932;28;20054;-65
2021/11/18 10:23:43;;;;;;;27.02;15.00;;;;;;;;;;4960776;28;20069;-65
2021/11/18 10:26:21;;;;;;;21.40;14.13;;;;;;;;;;4977404;28;21564;-65
2021/11/18 10:29:00;;;;;;;26.65;14.00;;;;;;;;;;4959437;28;20466;-65
2021/11/18 10:31:54;;;;;;;26.40;15.52;;;;;;;;;;4977386;28;20062;-66
2021/11/18 10:34:49;;;;;;;22.80;13.93;;;;;;;;;;4978865;28;20064;-65
2021/11/18 10:37:21;;;;;;;25.83;13.85;;;;;;;;;;4956865;28;20137;-65
2021/11/18 10:40:07;;;;;;;25.60;13.85;;;;;;;;;;4976314;28;20054;-65
2021/11/18 10:42:37;;;;;;;25.63;14.10;;;;;;;;;;4962002;28;20089;-65
2021/11/18 10:45:07;;;;;;;22.08;13.75;;;;;;;;;;4948857;28;20054;-65
2021/11/18 10:47:44;;;;;;;25.88;13.85;;;;;;;;;;4965966;28;20046;-65
2021/11/18 10:50:33;;;;;;;21.17;12.80;;;;;;;;;;4961546;28;20126;-65
2021/11/18 10:53:11;;;;;;;23.20;12.57;;;;;;;;;;4975558;28;20047;-65
2021/11/18 10:55:40;;;;;;;19.73;12.80;;;;;;;;;;4977537;28;20104;-66
2021/11/18 10:58:10;;;;;;;22.83;13.07;;;;;;;;;;4974850;28;20088;-66
2021/11/18 11:00:37;;;;;;;26.08;13.20;;;;;;;;;;4952106;23;20048;-67
2021/11/18 11:03:33;;;;;;;25.38;12.85;;;;;;;;;;4959796;28;20043;-68
2021/11/18 11:06:12;;;;;;;21.42;12.77;;;;;;;;;;4946797;28;20545;-68
2021/11/18 11:08:40;;;;;;;20.63;12.00;;;;;;;;;;4937204;29;20110;-68
2021/11/18 11:11:39;;;;;;;24.48;13.02;;;;;;;;;;4955928;28;20090;-68
2021/11/18 11:14:43;;;;;;;22.73;12.52;;;;;;;;;;4955931;28;20043;-68
2021/11/18 11:17:33;;;;;;;23.67;13.00;;;;;;;;;;4958233;28;20059;-68
2021/11/18 11:20:18;;;;;;;22.52;13.40;;;;;;;;;;4939611;28;20625;-67
2021/11/18 11:23:08;;;;;;;23.65;12.95;;;;;;;;;;4958599;28;20052;-67
2021/11/18 11:25:46;;;;;;;19.77;12.48;;;;;;;;;;4947180;28;20497;-67
2021/11/18 11:28:44;;;;;;;26.33;13.50;;;;;;;;;;4961264;28;20121;-67
2021/11/18 11:31:19;;;;;;;26.20;13.43;;;;;;;;;;4961238;28;20043;-66
2021/11/18 11:34:13;;;;;;;23.23;13.60;;;;;;;;;;4962421;28;20046;-67
2021/11/18 11:37:26;;;;;;;18.17;11.40;;;;;;;;;;4958689;28;20051;-67
2021/11/18 11:40:00;;;;;;;24.23;12.93;;;;;;;;;;4961124;28;20113;-67
2021/11/18 11:42:44;;;;;;;19.58;12.07;;;;;;;;;;4960293;28;20055;-67
2021/11/18 11:45:19;;;;;;;25.98;13.63;;;;;;;;;;4954678;28;20059;-67
2021/11/18 11:47:49;;;;;;;19.38;12.13;;;;;;;;;;4961826;28;20054;-67
2021/11/18 11:50:43;;;;;;;20.38;12.95;;;;;;;;;;4960840;28;20047;-67
2021/11/18 11:53:16;;;;;;;22.13;12.57;;;;;;;;;;4946710;28;20046;-67
2021/11/18 11:55:53;;;;;;;;;;;;;;;;;;4924184;28;20051;-68
2021/11/18 11:58:23;;;;;;;21.50;12.45;;;;;;;;;;4945636;28;19931;-67
2021/11/18 12:01:12;;;;;;;18.50;12.55;;;;;;;;;;4960853;28;20436;-71
2021/11/18 12:04:03;;;;;;;19.35;12.07;;;;;;;;;;4929917;28;20047;-71
2021/11/18 12:06:40;;;;;;;25.38;14.10;;;;;;;;;;4944808;28;20051;-69
2021/11/18 12:09:11;;;;;;;22.48;12.93;;;;;;;;;;4946622;28;20059;-67
2021/11/18 12:12:12;;;;;;;22.98;12.07;;;;;;;;;;4946077;28;20058;-69
2021/11/18 12:14:41;;;;;;;21.10;11.80;;;;;;;;;;4946120;28;20502;-68
2021/11/18 12:17:36;;;;;;;18.98;12.10;;;;;;;;;;4959332;28;20058;-69
2021/11/18 12:20:04;;;;;;;22.02;11.85;;;;;;;;;;4943847;28;20246;-68
2021/11/18 12:22:34;;;;;;;19.58;11.57;;;;;;;;;;4960903;28;20117;-75
2021/11/18 12:25:31;;;;;;;18.92;11.60;;;;;;;;;;4961767;28;20055;-68
2021/11/18 12:28:13;;;;;;;21.98;12.18;;;;;;;;;;4961561;28;20043;-69
2021/11/18 12:30:46;;;;;;;21.00;12.02;;;;;;;;;;4951559;28;20129;-73
2021/11/18 12:33:19;;;;;;;18.83;12.15;;;;;;;;;;4959096;28;20105;-74
2021/11/18 12:36:08;;;;;;;19.70;11.85;;;;;;;;;;4961949;28;20388;-73
2021/11/18 12:38:57;;;;;;;20.45;11.77;;;;;;;;;;4961293;28;20055;-74
2021/11/18 12:42:06;;;;;;;26.48;12.52;;;;;;;;;;4944407;28;20059;-73
2021/11/18 12:45:10;;;;;;;20.55;12.27;;;;;;;;;;4950631;28;20058;-74
2021/11/18 12:47:51;;;;;;;18.98;11.52;;;;;;;;;;4962552;28;20042;-70
2021/11/18 12:50:47;;;;;;;21.00;11.57;;;;;;;;;;4960531;28;20134;-75
2021/11/18 12:53:22;;;;;;;19.48;10.85;;;;;;;;;;4963990;28;20047;-70
2021/11/18 12:56:03;;;;;;;21.83;12.43;;;;;;;;;;4958745;28;20059;-73
2021/11/18 12:58:48;;;;;;;17.83;11.68;;;;;;;;;;4958574;28;20405;-74
2021/11/18 13:01:20;;;;;;;20.67;12.20;;;;;;;;;;4944550;28;20093;-74
2021/11/18 13:03:48;;;;;;;22.85;13.25;;;;;;;;;;4961128;28;20070;-70
2021/11/18 13:06:29;;;;;;;20.92;12.23;;;;;;;;;;4963304;28;20047;-72
2021/11/18 13:09:10;;;;;;;17.88;11.77;;;;;;;;;;4966889;28;20054;-67
2021/11/18 13:11:52;;;;;;;22.75;12.00;;;;;;;;;;4931092;28;20560;-67
2021/11/18 13:14:21;;;;;;;18.65;11.82;;;;;;;;;;4961378;28;20055;-67
2021/11/18 13:16:48;;;;;;;20.48;11.32;;;;;;;;;;4960140;28;20058;-67
2021/11/18 13:19:35;;;;;;;23.55;12.18;;;;;;;;;;4961504;28;20089;-73
2021/11/18 13:22:01;;;;;;;20.17;11.35;;;;;;;;;;4958899;28;20066;-68
2021/11/18 13:24:34;;;;;;;17.73;10.75;;;;;;;;;;4960681;28;20043;-69
2021/11/18 13:27:01;;;;;;;17.48;12.10;;;;;;;;;;4962669;28;20046;-68
2021/11/18 13:29:50;;;;;;;18.27;11.07;;;;;;;;;;4945715;28;20055;-70
2021/11/18 13:32:22;;;;;;;21.88;12.40;;;;;;;;;;4959750;28;20577;-78
2021/11/18 13:35:09;;;;;;;19.02;11.90;;;;;;;;;;4939967;28;20442;-74
2021/11/18 13:37:40;;;;;;;17.55;11.93;;;;;;;;;;4948489;28;20105;-73
2021/11/18 13:40:09;;;;;;;18.02;11.45;;;;;;;;;;4966252;28;20047;-76
2021/11/18 13:42:39;;;;;;;14.55;9.85;;;;;;;;;;4964112;28;20571;-73
2021/11/18 13:45:27;;;;;;;16.88;9.73;;;;;;;;;;4912315;28;20118;-72
2021/11/18 13:48:03;;;;;;;20.98;10.77;;;;;;;;;;4932522;28;20106;-76
2021/11/18 13:50:35;;;;;;;15.27;10.73;;;;;;;;;;4958834;28;20595;-70
2021/11/18 13:53:18;;;;;;;13.48;8.98;;;;;;;;;;4930467;28;20489;-72
2021/11/18 13:55:50;;;;;;;12.90;8.57;;;;;;;;;;4945090;28;20094;-69
2021/11/18 13:58:19;;;;;;;11.93;7.85;;;;;;;;;;4960541;28;20051;-70
2021/11/18 14:01:19;;;;;;;11.25;7.80;;;;;;;;;;4947874;28;20141;-70
2021/11/18 14:03:55;;;;;;;11.50;8.40;;;;;;;;;;4917713;28;20047;-72
2021/11/18 14:06:26;;;;;;;12.15;7.38;;;;;;;;;;4914420;28;20052;-68
2021/11/18 14:08:57;;;;;;;16.80;8.82;;;;;;;;;;4927718;28;20051;-69
2021/11/18 14:11:28;;;;;;;17.98;9.18;;;;;;;;;;4913703;28;20134;-67
2021/11/18 14:14:19;;;;;;;12.95;8.55;;;;;;;;;;4926437;29;20050;-65
2021/11/18 14:16:45;;;;;;;16.13;10.57;;;;;;;;;;4932588;28;20051;-71
2021/11/18 14:19:36;;;;;;;16.33;10.07;;;;;;;;;;4959828;28;20082;-70
2021/11/18 14:22:13;;;;;;;17.95;10.32;;;;;;;;;;4958698;28;20499;-70
2021/11/18 14:24:46;;;;;;;13.27;9.70;;;;;;;;;;4923684;28;20079;-72
2021/11/18 14:27:16;;;;;;;10.77;7.93;;;;;;;;;;4942756;28;20047;-69
2021/11/18 14:29:53;;;;;;;8.13;6.63;;;;;;;;;;4959319;28;20061;-69
2021/11/18 14:32:38;;;;;;;8.88;6.32;;;;;;;;;;4958052;28;20095;-70
2021/11/18 14:35:20;;;;;;;11.65;6.40;;;;;;;;;;4962749;28;20120;-73
2021/11/18 14:37:56;;;;;;;10.45;5.47;;;;;;;;;;4964269;28;20050;-76
2021/11/18 14:41:04;;;;;;;9.70;6.35;;;;;;;;;;4922575;28;20047;-71
2021/11/18 14:43:53;;;;;;;11.60;7.07;;;;;;;;;;4933997;28;20051;-75
2021/11/18 14:46:31;;;;;;;10.65;8.52;;;;;;;;;;4961957;28;20050;-74
2021/11/18 14:49:22;;;;;;;13.48;7.72;;;;;;;;;;4956862;28;20144;-70
2021/11/18 14:51:51;;;;;;;9.57;7.55;;;;;;;;;;4955606;28;20058;-69
2021/11/18 14:54:26;;;;;;;9.10;6.60;;;;;;;;;;4960305;28;20046;-72
2021/11/18 14:56:55;;;;;;;10.80;7.13;;;;;;;;;;4959789;28;20170;-67
2021/11/18 14:59:23;;;;;;;10.25;6.72;;;;;;;;;;4958440;28;20375;-70
2021/11/18 15:02:00;;;;;;;15.27;7.18;;;;;;;;;;4960464;28;20122;-69
2021/11/18 15:04:34;;;;;;;9.43;6.95;;;;;;;;;;4962868;28;20088;-72
2021/11/18 15:07:04;;;;;;;10.98;6.28;;;;;;;;;;4963156;28;20126;-70
2021/11/18 15:09:35;;;;;;;11.45;5.72;;;;;;;;;;4966382;28;20528;-72
2021/11/18 15:12:04;;;;;;;9.82;5.75;;;;;;;;;;4960472;28;20081;-73
2021/11/18 15:14:31;;;;;;;7.13;5.28;;;;;;;;;;4962729;28;20042;-69